createdAt,value
2018-10-07T00:01:19.874Z,12.50
2018-10-07T00:03:48.694Z,12.30
2018-10-07T00:06:17.512Z,12.30
2018-10-07T00:08:46.298Z,12.30
2018-10-07T00:11:15.111Z,12.30
2018-10-07T00:13:45.185Z,12.20
2018-10-07T00:16:14.158Z,12.10
2018-10-07T00:18:42.938Z,11.80
2018-10-07T00:21:11.719Z,11.70
2018-10-07T00:23:49.493Z,11.70
2018-10-07T00:26:18.350Z,11.50
2018-10-07T00:28:47.133Z,11.40
2018-10-07T00:31:15.967Z,11.30
2018-10-07T00:33:44.795Z,11.30
2018-10-07T00:36:13.619Z,11.20
2018-10-07T00:38:42.464Z,11.10
2018-10-07T00:41:11.311Z,11.10
2018-10-07T00:43:40.110Z,11.00
2018-10-07T00:46:09.383Z,10.90
2018-10-07T00:48:38.234Z,10.80
2018-10-07T00:51:07.043Z,10.90
2018-10-07T00:53:36.101Z,10.80
2018-10-07T00:56:04.963Z,10.60
2018-10-07T00:58:33.786Z,10.60
2018-10-07T01:01:02.667Z,10.50
2018-10-07T01:03:31.490Z,10.50
2018-10-07T01:06:00.302Z,10.40
2018-10-07T01:08:29.117Z,10.40
2018-10-07T01:10:57.928Z,10.30
2018-10-07T01:13:26.805Z,10.40
2018-10-07T01:15:55.664Z,10.40
2018-10-07T01:18:24.482Z,10.50
2018-10-07T01:20:53.326Z,10.50
2018-10-07T01:23:22.168Z,10.50
2018-10-07T01:25:51.019Z,10.30
2018-10-07T01:28:19.861Z,10.40
2018-10-07T01:30:48.787Z,10.40
2018-10-07T01:33:17.604Z,10.20
2018-10-07T01:35:46.437Z,10.10
2018-10-07T01:38:15.253Z,10.10
2018-10-07T01:40:44.058Z,10.00
2018-10-07T01:43:13.010Z,10.10
2018-10-07T01:45:41.849Z,10.10
2018-10-07T01:48:14.709Z,10.00
2018-10-07T01:50:43.729Z,10.00
2018-10-07T01:53:12.531Z,10.10
2018-10-07T01:55:41.369Z,10.10
2018-10-07T01:58:10.175Z,10.10
2018-10-07T02:00:39.009Z,10.00
2018-10-07T02:03:07.815Z,9.90
2018-10-07T02:05:36.899Z,9.80
2018-10-07T02:08:05.939Z,9.90
2018-10-07T02:10:34.852Z,9.80
2018-10-07T02:13:03.665Z,9.80
2018-10-07T02:15:32.506Z,9.80
2018-10-07T02:18:01.401Z,9.80
2018-10-07T02:20:30.476Z,9.80
2018-10-07T02:22:59.333Z,9.80
2018-10-07T02:25:28.145Z,9.90
2018-10-07T02:27:58.127Z,9.90
2018-10-07T02:30:27.794Z,10.00
2018-10-07T02:32:57.307Z,9.90
2018-10-07T02:35:26.180Z,10.00
2018-10-07T02:37:55.187Z,9.90
2018-10-07T02:40:24.048Z,9.80
2018-10-07T02:42:53.025Z,9.90
2018-10-07T02:45:21.921Z,9.80
2018-10-07T02:47:50.827Z,9.70
2018-10-07T02:50:22.770Z,9.80
2018-10-07T02:52:57.411Z,9.70
2018-10-07T02:55:27.706Z,9.80
2018-10-07T02:57:57.768Z,9.80
2018-10-07T03:00:26.716Z,9.90
2018-10-07T03:02:56.106Z,9.80
2018-10-07T03:05:24.946Z,9.80
2018-10-07T03:07:53.763Z,9.80
2018-10-07T03:10:22.877Z,9.90
2018-10-07T03:12:51.709Z,9.80
2018-10-07T03:15:20.678Z,9.80
2018-10-07T03:17:49.516Z,9.70
2018-10-07T03:20:19.045Z,9.70
2018-10-07T03:22:47.864Z,9.70
2018-10-07T03:25:16.682Z,9.70
2018-10-07T03:27:45.488Z,9.80
2018-10-07T03:30:14.330Z,9.80
2018-10-07T03:32:43.126Z,9.80
2018-10-07T03:35:11.966Z,9.80
2018-10-07T03:37:40.781Z,9.90
2018-10-07T03:40:09.590Z,9.80
2018-10-07T03:42:38.630Z,9.70
2018-10-07T03:45:07.462Z,9.70
2018-10-07T03:47:36.312Z,9.80
2018-10-07T03:50:05.391Z,9.70
2018-10-07T03:52:34.209Z,9.70
2018-10-07T03:55:04.143Z,9.70
2018-10-07T03:57:33.009Z,9.50
2018-10-07T04:00:01.872Z,9.30
2018-10-07T04:02:30.762Z,9.30
2018-10-07T04:04:59.621Z,9.30
2018-10-07T04:07:28.429Z,9.40
2018-10-07T04:09:57.238Z,9.40
2018-10-07T04:12:26.045Z,9.40
2018-10-07T04:14:54.861Z,9.40
2018-10-07T04:17:23.674Z,9.40
2018-10-07T04:19:59.215Z,9.40
2018-10-07T04:22:28.029Z,9.40
2018-10-07T04:24:56.843Z,9.30
2018-10-07T04:27:25.662Z,9.30
2018-10-07T04:29:54.490Z,9.20
2018-10-07T04:32:23.316Z,9.10
2018-10-07T04:34:52.147Z,9.10
2018-10-07T04:37:20.966Z,9.10
2018-10-07T04:39:49.893Z,9.00
2018-10-07T04:42:18.690Z,9.00
2018-10-07T04:44:47.510Z,9.00
2018-10-07T04:47:16.338Z,8.90
2018-10-07T04:49:45.171Z,8.90
2018-10-07T04:52:13.994Z,8.90
2018-10-07T04:54:42.794Z,9.00
2018-10-07T04:57:11.627Z,9.00
2018-10-07T04:59:40.441Z,9.00
2018-10-07T05:02:09.269Z,8.90
2018-10-07T05:04:38.103Z,8.90
2018-10-07T05:07:07.054Z,8.80
2018-10-07T05:09:36.454Z,8.70
2018-10-07T05:12:06.642Z,8.60
2018-10-07T05:14:35.433Z,8.60
2018-10-07T05:17:04.321Z,8.50
2018-10-07T05:19:33.173Z,8.50
2018-10-07T05:22:01.982Z,8.40
2018-10-07T05:24:30.792Z,8.40
2018-10-07T05:26:59.589Z,8.40
2018-10-07T05:29:28.439Z,8.40
2018-10-07T05:31:57.334Z,8.40
2018-10-07T05:34:26.186Z,8.30
2018-10-07T05:36:54.993Z,8.20
2018-10-07T05:39:23.834Z,8.10
2018-10-07T05:41:52.634Z,8.00
2018-10-07T05:44:22.574Z,8.00
2018-10-07T05:46:51.406Z,7.90
2018-10-07T05:49:20.267Z,7.90
2018-10-07T05:51:49.083Z,7.90
2018-10-07T05:54:17.892Z,7.90
2018-10-07T05:56:46.709Z,7.90
2018-10-07T05:59:15.533Z,7.90
2018-10-07T06:01:45.140Z,7.90
2018-10-07T06:04:19.297Z,7.90
2018-10-07T06:06:48.243Z,7.80
2018-10-07T06:09:24.629Z,7.80
2018-10-07T06:11:53.844Z,7.90
2018-10-07T06:14:33.906Z,7.90
2018-10-07T06:17:03.251Z,7.80
2018-10-07T06:19:32.430Z,7.80
2018-10-07T06:22:02.768Z,7.80
2018-10-07T06:24:31.819Z,7.80
2018-10-07T06:27:00.649Z,7.90
2018-10-07T06:29:29.466Z,7.80
2018-10-07T06:31:58.314Z,7.80
2018-10-07T06:34:27.138Z,7.80
2018-10-07T06:36:55.953Z,7.80
2018-10-07T06:39:25.132Z,7.80
2018-10-07T06:41:53.920Z,7.80
2018-10-07T06:44:22.988Z,7.80
2018-10-07T06:46:52.720Z,7.80
2018-10-07T06:49:21.692Z,7.80
2018-10-07T06:51:50.575Z,7.90
2018-10-07T06:54:19.401Z,7.80
2018-10-07T06:56:49.829Z,7.80
2018-10-07T06:59:18.692Z,7.80
2018-10-07T07:01:47.497Z,7.90
2018-10-07T07:04:16.414Z,7.90
2018-10-07T07:06:45.277Z,8.00
2018-10-07T07:09:14.148Z,7.90
2018-10-07T07:11:42.960Z,7.90
2018-10-07T07:14:11.797Z,7.90
2018-10-07T07:16:40.613Z,8.00
2018-10-07T07:19:09.538Z,8.10
2018-10-07T07:21:38.363Z,8.20
2018-10-07T07:24:07.504Z,8.10
2018-10-07T07:26:36.325Z,8.10
2018-10-07T07:29:05.167Z,8.20
2018-10-07T07:31:34.169Z,8.30
2018-10-07T07:34:02.850Z,8.30
2018-10-07T07:36:31.690Z,8.40
2018-10-07T07:39:00.554Z,8.40
2018-10-07T07:41:29.440Z,8.50
2018-10-07T07:43:58.269Z,8.60
2018-10-07T07:46:27.070Z,8.60
2018-10-07T07:48:56.110Z,8.80
2018-10-07T07:51:25.058Z,8.90
2018-10-07T07:53:53.921Z,8.90
2018-10-07T07:56:22.771Z,9.00
2018-10-07T07:58:51.614Z,9.20
2018-10-07T08:01:20.466Z,9.20
2018-10-07T08:03:49.278Z,9.30
2018-10-07T08:06:18.169Z,9.90
2018-10-07T08:08:47.053Z,10.70
2018-10-07T08:11:19.637Z,11.50
2018-10-07T08:13:48.661Z,12.10
2018-10-07T08:16:17.525Z,12.80
2018-10-07T08:18:46.353Z,13.20
2018-10-07T08:21:15.748Z,13.60
2018-10-07T08:23:44.642Z,14.10
2018-10-07T08:26:13.581Z,14.60
2018-10-07T08:28:42.397Z,15.00
2018-10-07T08:31:11.219Z,15.20
2018-10-07T08:33:40.062Z,15.60
2018-10-07T08:36:08.953Z,15.90
2018-10-07T08:38:37.786Z,16.20
2018-10-07T08:41:06.855Z,16.10
2018-10-07T08:43:35.680Z,16.30
2018-10-07T08:46:04.521Z,16.50
2018-10-07T08:48:33.341Z,16.60
2018-10-07T08:51:02.166Z,16.60
2018-10-07T08:53:30.985Z,16.60
2018-10-07T08:55:59.869Z,16.70
2018-10-07T08:58:28.656Z,16.70
2018-10-07T09:00:57.486Z,16.80
2018-10-07T09:03:26.302Z,16.60
2018-10-07T09:05:55.145Z,17.00
2018-10-07T09:08:23.954Z,16.90
2018-10-07T09:10:53.045Z,16.80
2018-10-07T09:13:21.870Z,17.10
2018-10-07T09:15:50.694Z,17.30
2018-10-07T09:18:19.518Z,17.60
2018-10-07T09:20:48.615Z,17.50
2018-10-07T09:23:17.398Z,17.40
2018-10-07T09:25:46.240Z,17.50
2018-10-07T09:28:15.221Z,17.40
2018-10-07T09:30:44.067Z,17.30
2018-10-07T09:33:12.936Z,17.10
2018-10-07T09:35:41.786Z,17.20
2018-10-07T09:38:10.617Z,17.40
2018-10-07T09:40:39.433Z,17.60
2018-10-07T09:43:08.306Z,17.90
2018-10-07T09:45:37.133Z,17.80
2018-10-07T09:48:05.943Z,18.10
2018-10-07T09:50:34.789Z,18.20
2018-10-07T09:53:03.610Z,18.40
2018-10-07T09:55:36.603Z,18.00
2018-10-07T09:58:05.877Z,17.90
2018-10-07T10:00:40.313Z,18.10
2018-10-07T10:03:10.440Z,18.20
2018-10-07T10:05:39.265Z,18.40
2018-10-07T10:08:08.609Z,18.30
2018-10-07T10:10:37.450Z,18.30
2018-10-07T10:13:06.307Z,18.40
2018-10-07T10:15:35.129Z,18.60
2018-10-07T10:18:08.257Z,18.50
2018-10-07T10:20:49.570Z,18.30
2018-10-07T10:23:26.393Z,17.70
2018-10-07T10:26:05.343Z,17.40
2018-10-07T10:28:36.849Z,17.60
2018-10-07T10:31:11.039Z,17.90
2018-10-07T10:33:49.802Z,18.20
2018-10-07T10:36:29.571Z,18.40
2018-10-07T10:40:01.945Z,18.50
2018-10-07T10:43:16.746Z,18.30
2018-10-07T10:46:19.463Z,18.50
2018-10-07T10:51:08.753Z,18.60
2018-10-07T10:53:43.619Z,18.50
2018-10-07T10:56:23.775Z,18.30
2018-10-07T11:01:13.674Z,18.40
2018-10-07T11:04:21.196Z,18.20
2018-10-07T11:07:01.025Z,18.60
2018-10-07T11:09:56.038Z,18.20
2018-10-07T11:12:38.653Z,18.20
2018-10-07T11:15:23.129Z,18.50
2018-10-07T11:18:03.630Z,18.50
2018-10-07T11:21:04.795Z,18.20
2018-10-07T11:23:57.261Z,18.10
2018-10-07T11:26:39.147Z,17.90
2018-10-07T11:29:13.130Z,17.90
2018-10-07T11:32:02.311Z,17.80
2018-10-07T11:34:39.394Z,17.80
2018-10-07T11:37:23.876Z,18.00
2018-10-07T11:40:34.809Z,18.20
2018-10-07T11:43:12.162Z,18.40
2018-10-07T11:45:45.289Z,18.10
2018-10-07T11:49:26.990Z,18.10
2018-10-07T11:52:07.530Z,18.10
2018-10-07T11:54:59.022Z,18.00
2018-10-07T11:57:28.404Z,18.00
2018-10-07T11:59:58.019Z,17.80
2018-10-07T12:02:27.402Z,17.60
2018-10-07T12:04:56.600Z,17.50
2018-10-07T12:07:26.417Z,16.90
2018-10-07T12:09:55.454Z,16.60
2018-10-07T12:12:24.255Z,16.60
2018-10-07T12:14:53.076Z,16.40
2018-10-07T12:17:21.917Z,16.60
2018-10-07T12:19:50.778Z,16.80
2018-10-07T12:22:19.614Z,16.60
2018-10-07T12:24:49.445Z,16.40
2018-10-07T12:27:19.458Z,16.60
2018-10-07T12:29:48.370Z,16.60
2018-10-07T12:32:17.194Z,16.70
2018-10-07T12:34:46.052Z,16.80
2018-10-07T12:37:15.054Z,16.80
2018-10-07T12:39:43.893Z,16.90
2018-10-07T12:42:12.758Z,16.80
2018-10-07T12:44:41.601Z,16.60
2018-10-07T12:47:10.412Z,16.50
2018-10-07T12:49:39.337Z,16.60
2018-10-07T12:52:08.163Z,16.80
2018-10-07T12:54:37.064Z,16.70
2018-10-07T12:57:05.883Z,16.60
2018-10-07T12:59:34.714Z,16.60
2018-10-07T13:02:03.561Z,16.60
2018-10-07T13:04:32.527Z,16.70
2018-10-07T13:07:01.391Z,16.60
2018-10-07T13:09:31.601Z,16.30
2018-10-07T13:12:00.403Z,16.00
2018-10-07T13:14:29.257Z,16.00
2018-10-07T13:16:58.120Z,16.00
2018-10-07T13:19:26.992Z,16.00
2018-10-07T13:21:55.757Z,16.00
2018-10-07T13:24:26.743Z,16.00
2018-10-07T13:26:55.895Z,16.10
2018-10-07T13:29:24.695Z,16.10
2018-10-07T13:31:53.523Z,16.10
2018-10-07T13:34:22.338Z,15.90
2018-10-07T13:36:51.262Z,15.80
2018-10-07T13:39:20.083Z,15.90
2018-10-07T13:41:48.934Z,15.80
2018-10-07T13:44:17.798Z,15.60
2018-10-07T13:46:46.682Z,15.60
2018-10-07T13:49:15.529Z,15.20
2018-10-07T13:51:44.365Z,15.10
2018-10-07T13:54:13.234Z,15.00
2018-10-07T13:56:42.053Z,14.90
2018-10-07T13:59:10.858Z,14.80
2018-10-07T14:01:39.797Z,14.80
2018-10-07T14:04:08.650Z,14.70
2018-10-07T14:06:37.482Z,14.70
2018-10-07T14:09:08.586Z,14.60
2018-10-07T14:11:37.482Z,14.50
2018-10-07T14:14:06.354Z,14.50
2018-10-07T14:16:35.186Z,14.50
2018-10-07T14:19:04.073Z,14.50
2018-10-07T14:21:32.894Z,14.60
2018-10-07T14:24:01.813Z,14.50
2018-10-07T14:26:30.597Z,14.50
2018-10-07T14:28:59.409Z,14.30
2018-10-07T14:31:28.355Z,14.20
2018-10-07T14:33:57.181Z,14.10
2018-10-07T14:36:26.014Z,14.10
2018-10-07T14:38:54.865Z,14.10
2018-10-07T14:41:23.697Z,14.00
2018-10-07T14:43:52.617Z,14.00
2018-10-07T14:46:21.485Z,13.90
2018-10-07T14:48:50.360Z,14.00
2018-10-07T14:51:22.814Z,13.90
2018-10-07T14:53:51.832Z,14.00
2018-10-07T14:56:20.861Z,14.10
2018-10-07T14:58:49.747Z,14.10
2018-10-07T15:01:18.759Z,14.10
2018-10-07T15:03:47.468Z,14.00
2018-10-07T15:06:16.372Z,13.80
2018-10-07T15:08:45.198Z,13.80
2018-10-07T15:11:14.725Z,13.90
2018-10-07T15:13:43.913Z,13.80
2018-10-07T15:16:12.766Z,13.70
2018-10-07T15:18:41.584Z,13.60
2018-10-07T15:21:10.415Z,13.70
2018-10-07T15:23:39.828Z,13.80
2018-10-07T15:26:08.637Z,13.70
2018-10-07T15:28:37.499Z,13.70
2018-10-07T15:31:06.361Z,13.70
2018-10-07T15:33:35.409Z,13.70
2018-10-07T15:36:04.238Z,13.60
2018-10-07T15:38:33.122Z,13.60
2018-10-07T15:41:01.958Z,13.50
2018-10-07T15:43:30.836Z,13.50
2018-10-07T15:45:59.803Z,13.30
2018-10-07T15:48:28.687Z,13.20
2018-10-07T15:50:57.565Z,13.00
2018-10-07T15:53:26.409Z,12.90
2018-10-07T15:55:55.426Z,12.90
2018-10-07T15:58:27.856Z,12.90
2018-10-07T16:00:57.001Z,12.80
2018-10-07T16:03:26.032Z,12.70
2018-10-07T16:05:55.194Z,12.60
2018-10-07T16:08:24.024Z,12.50
2018-10-07T16:10:53.055Z,12.40
2018-10-07T16:13:21.926Z,12.30
2018-10-07T16:15:50.767Z,12.20
2018-10-07T16:18:19.672Z,12.10
2018-10-07T16:20:48.554Z,12.00
2018-10-07T16:23:17.445Z,12.00
2018-10-07T16:25:46.462Z,11.80
2018-10-07T16:28:15.296Z,11.70
2018-10-07T16:30:44.162Z,11.70
2018-10-07T16:33:13.021Z,11.60
2018-10-07T16:35:41.841Z,11.50
2018-10-07T16:38:10.724Z,11.40
2018-10-07T16:40:39.570Z,11.30
2018-10-07T16:43:08.426Z,11.20
2018-10-07T16:45:37.505Z,11.10
2018-10-07T16:48:06.409Z,10.90
2018-10-07T16:50:35.205Z,10.80
2018-10-07T16:53:04.054Z,10.70
2018-10-07T16:55:32.878Z,10.60
2018-10-07T16:58:01.738Z,10.50
2018-10-07T17:03:06.724Z,10.30
2018-10-07T17:05:35.930Z,10.20
2018-10-07T17:08:04.841Z,10.10
2018-10-07T17:10:33.649Z,10.00
2018-10-07T17:13:02.686Z,9.90
2018-10-07T17:15:31.478Z,9.90
2018-10-07T17:18:00.317Z,9.80
2018-10-07T17:20:29.278Z,9.70
2018-10-07T17:22:58.622Z,9.60
2018-10-07T17:25:27.920Z,9.60
2018-10-07T17:27:57.165Z,9.60
2018-10-07T17:30:26.104Z,9.50
2018-10-07T17:32:55.136Z,9.50
2018-10-07T17:35:24.081Z,9.40
2018-10-07T17:37:53.346Z,9.40
2018-10-07T17:40:22.782Z,9.30
2018-10-07T17:42:51.594Z,9.30
2018-10-07T17:45:24.214Z,9.20
2018-10-07T17:47:53.830Z,9.20
2018-10-07T17:50:22.787Z,9.10
2018-10-07T17:52:51.610Z,9.10
2018-10-07T17:55:20.645Z,9.00
2018-10-07T17:57:49.973Z,9.00
2018-10-07T18:00:18.816Z,8.90
2018-10-07T18:02:48.429Z,8.90
2018-10-07T18:05:17.194Z,8.80
2018-10-07T18:07:46.009Z,8.80
2018-10-07T18:10:15.018Z,8.80
2018-10-07T18:12:43.902Z,8.80
2018-10-07T18:15:12.744Z,8.80
2018-10-07T18:17:41.810Z,8.70
2018-10-07T18:20:10.673Z,8.70
2018-10-07T18:22:39.606Z,8.70
2018-10-07T18:25:08.422Z,8.70
2018-10-07T18:27:37.509Z,8.70
2018-10-07T18:30:06.358Z,8.60
2018-10-07T18:32:35.253Z,8.60
2018-10-07T18:35:04.362Z,8.50
2018-10-07T18:37:33.224Z,8.50
2018-10-07T18:40:02.173Z,8.60
2018-10-07T18:42:31.081Z,8.60
2018-10-07T18:44:59.916Z,8.60
2018-10-07T18:47:28.784Z,8.50
2018-10-07T18:49:57.662Z,8.50
2018-10-07T18:52:26.568Z,8.40
2018-10-07T18:54:55.388Z,8.40
2018-10-07T18:59:59.406Z,8.30
2018-10-07T19:02:28.858Z,8.20
2018-10-07T19:04:57.742Z,8.20
2018-10-07T19:07:26.631Z,8.20
2018-10-07T19:09:55.570Z,8.10
2018-10-07T19:12:24.514Z,8.10
2018-10-07T19:14:53.466Z,8.10
2018-10-07T19:17:22.457Z,8.10
2018-10-07T19:19:51.293Z,8.00
2018-10-07T19:22:20.383Z,8.00
2018-10-07T19:24:49.665Z,8.00
2018-10-07T19:27:18.515Z,7.90
2018-10-07T19:29:47.454Z,7.90
2018-10-07T19:32:17.821Z,7.90
2018-10-07T19:34:46.802Z,7.90
2018-10-07T19:37:15.749Z,7.80
2018-10-07T19:39:44.640Z,7.80
2018-10-07T19:42:13.487Z,7.70
2018-10-07T19:44:42.391Z,7.70
2018-10-07T19:47:11.225Z,7.60
2018-10-07T19:49:41.091Z,7.60
2018-10-07T19:52:10.044Z,7.60
2018-10-07T19:54:38.951Z,7.50
2018-10-07T19:57:07.793Z,7.50
2018-10-07T19:59:36.817Z,7.40
2018-10-07T20:02:05.915Z,7.40
2018-10-07T20:04:35.015Z,7.30
2018-10-07T20:07:03.854Z,7.30
2018-10-07T20:09:33.215Z,7.30
2018-10-07T20:12:02.317Z,7.20
2018-10-07T20:14:33.291Z,7.40
2018-10-07T20:17:02.164Z,7.40
2018-10-07T20:19:31.277Z,7.40
2018-10-07T20:22:00.298Z,7.40
2018-10-07T20:24:29.147Z,7.40
2018-10-07T20:26:58.088Z,7.40
2018-10-07T20:29:29.710Z,7.50
2018-10-07T20:31:58.899Z,7.50
2018-10-07T20:34:27.742Z,7.50
2018-10-07T20:36:56.582Z,7.50
2018-10-07T20:39:25.402Z,7.50
2018-10-07T20:41:54.214Z,7.50
2018-10-07T20:44:23.049Z,7.60
2018-10-07T20:46:52.143Z,7.60
2018-10-07T20:49:21.181Z,7.60
2018-10-07T20:51:53.280Z,7.60
2018-10-07T20:54:19.229Z,7.70
2018-10-07T20:56:48.122Z,7.70
2018-10-07T20:59:17.109Z,7.70
2018-10-07T21:01:46.007Z,7.70
2018-10-07T21:04:14.902Z,7.70
2018-10-07T21:06:43.743Z,7.70
2018-10-07T21:09:12.593Z,7.80
2018-10-07T21:11:41.558Z,7.80
2018-10-07T21:14:10.605Z,7.70
2018-10-07T21:16:40.812Z,7.70
2018-10-07T21:19:09.705Z,7.60
2018-10-07T21:21:38.604Z,7.50
2018-10-07T21:24:07.473Z,7.50
2018-10-07T21:26:36.269Z,7.50
2018-10-07T21:29:05.214Z,7.40
2018-10-07T21:31:34.054Z,7.40
2018-10-07T21:34:02.891Z,7.40
2018-10-07T21:36:31.735Z,7.40
2018-10-07T21:39:00.572Z,7.40
2018-10-07T21:41:29.423Z,7.40
2018-10-07T21:43:58.667Z,7.40
2018-10-07T21:46:28.064Z,7.40
2018-10-07T21:48:56.854Z,7.40
2018-10-07T21:51:25.677Z,7.40
2018-10-07T21:53:54.510Z,7.40
2018-10-07T21:56:23.414Z,7.50
2018-10-07T21:58:52.227Z,7.60
2018-10-07T22:01:21.147Z,7.50
2018-10-07T22:03:50.123Z,7.50
2018-10-07T22:06:19.066Z,7.60
2018-10-07T22:08:47.849Z,7.60
2018-10-07T22:11:16.650Z,7.50
2018-10-07T22:13:45.811Z,7.60
2018-10-07T22:16:14.594Z,7.50
2018-10-07T22:18:43.414Z,7.50
2018-10-07T22:21:13.047Z,7.50
2018-10-07T22:23:42.211Z,7.50
2018-10-07T22:26:11.198Z,7.50
2018-10-07T22:28:40.281Z,7.50
2018-10-07T22:31:09.250Z,7.50
2018-10-07T22:33:38.351Z,7.40
2018-10-07T22:36:07.281Z,7.50
2018-10-07T22:38:36.103Z,7.50
2018-10-07T22:41:04.913Z,7.40
2018-10-07T22:43:33.724Z,7.40
2018-10-07T22:46:02.561Z,7.30
2018-10-07T22:48:31.468Z,7.30
2018-10-07T22:51:00.722Z,7.30
2018-10-07T22:53:29.542Z,7.30
2018-10-07T22:55:58.611Z,7.40
2018-10-07T22:58:27.393Z,7.50
2018-10-07T23:00:56.313Z,7.50
2018-10-07T23:03:25.191Z,7.40
2018-10-07T23:05:54.153Z,7.50
2018-10-07T23:08:23.021Z,7.40
2018-10-07T23:10:51.943Z,7.40
2018-10-07T23:13:20.969Z,7.40
2018-10-07T23:15:49.804Z,7.30
2018-10-07T23:18:18.646Z,7.40
2018-10-07T23:20:47.456Z,7.50
2018-10-07T23:23:16.265Z,7.40
2018-10-07T23:25:45.527Z,7.40
2018-10-07T23:28:18.176Z,7.40
2018-10-07T23:30:47.162Z,7.40
2018-10-07T23:33:15.989Z,7.30
2018-10-07T23:35:44.882Z,7.40
2018-10-07T23:38:13.696Z,7.40
2018-10-07T23:40:43.682Z,7.40
2018-10-07T23:43:12.497Z,7.30
2018-10-07T23:45:41.371Z,7.30
2018-10-07T23:48:10.163Z,7.30
2018-10-07T23:50:39.991Z,7.40
2018-10-07T23:53:08.801Z,7.40
2018-10-07T23:55:37.862Z,7.40
2018-10-07T23:58:06.803Z,7.30
